sensor_id;sensor_type;location;lat;lon;timestamp;pressure;altitude;pressure_sealevel;temperature;humidity
45864;BME280;31579;52.354;16.974;2023-05-16T00:00:19;509.6;;;-146.1;100.0
45864;BME280;31579;52.354;16.974;2023-05-16T00:01:22;509.6;;;-146.1;100.0
45864;BME280;31579;52.354;16.974;2023-05-16T00:02:26;509.6;;;-146.1;100.0
45864;BME280;31579;52.354;16.974;2023-05-16T00:03:30;509.6;;;-146.1;100.0
45864;BME280;31579;52.354;16.974;2023-05-16T00:04:34;509.6;;;-146.1;100.0
45864;BME280;31579;52.354;16.974;2023-05-16T00:05:38;509.6;;;-146.1;100.0
45864;BME280;31579;52.354;16.974;2023-05-16T00:06:42;509.6;;;-146.1;100.0
45864;BME280;31579;52.354;16.974;2023-05-16T00:07:46;509.6;;;-146.1;100.0
45864;BME280;31579;52.354;16.974;2023-05-16T00:08:50;509.6;;;-146.1;100.0
45864;BME280;31579;52.354;16.974;2023-05-16T00:09:54;509.5;;;-146.1;100.0
45864;BME280;31579;52.354;16.974;2023-05-16T00:10:58;509.5;;;-146.1;100.0
45864;BME280;31579;52.354;16.974;2023-05-16T00:12:00;509.6;;;-146.1;100.0
45864;BME280;31579;52.354;16.974;2023-05-16T00:13:05;509.6;;;-146.1;100.0
45864;BME280;31579;52.354;16.974;2023-05-16T00:14:09;509.6;;;-146.1;100.0
45864;BME280;31579;52.354;16.974;2023-05-16T00:15:13;509.6;;;-146.1;100.0
45864;BME280;31579;52.354;16.974;2023-05-16T00:16:18;509.6;;;-146.1;100.0
45864;BME280;31579;52.354;16.974;2023-05-16T00:17:22;509.6;;;-146.1;100.0
45864;BME280;31579;52.354;16.974;2023-05-16T00:18:26;509.6;;;-146.1;100.0
45864;BME280;31579;52.354;16.974;2023-05-16T00:19:31;509.6;;;-146.1;100.0
45864;BME280;31579;52.354;16.974;2023-05-16T00:20:35;509.5;;;-146.1;100.0
45864;BME280;31579;52.354;16.974;2023-05-16T00:21:39;509.5;;;-146.1;100.0
45864;BME280;31579;52.354;16.974;2023-05-16T00:22:43;509.5;;;-146.1;100.0
45864;BME280;31579;52.354;16.974;2023-05-16T00:23:47;509.5;;;-146.1;100.0
45864;BME280;31579;52.354;16.974;2023-05-16T00:24:51;509.5;;;-146.1;100.0
45864;BME280;31579;52.354;16.974;2023-05-16T00:25:55;509.5;;;-146.1;100.0
45864;BME280;31579;52.354;16.974;2023-05-16T00:26:59;509.5;;;-146.1;100.0
45864;BME280;31579;52.354;16.974;2023-05-16T00:28:03;509.5;;;-146.1;100.0
45864;BME280;31579;52.354;16.974;2023-05-16T00:29:07;509.5;;;-146.1;100.0
45864;BME280;31579;52.354;16.974;2023-05-16T00:30:11;509.5;;;-146.1;100.0
45864;BME280;31579;52.354;16.974;2023-05-16T00:31:15;509.5;;;-146.1;100.0
45864;BME280;31579;52.354;16.974;2023-05-16T00:32:20;509.5;;;-146.1;100.0
45864;BME280;31579;52.354;16.974;2023-05-16T00:33:24;509.5;;;-146.1;100.0
45864;BME280;31579;52.354;16.974;2023-05-16T00:34:28;509.5;;;-146.1;100.0
45864;BME280;31579;52.354;16.974;2023-05-16T00:35:32;509.5;;;-146.1;100.0
45864;BME280;31579;52.354;16.974;2023-05-16T00:36:36;509.5;;;-146.1;100.0
45864;BME280;31579;52.354;16.974;2023-05-16T00:37:40;509.5;;;-146.1;100.0
45864;BME280;31579;52.354;16.974;2023-05-16T00:38:44;509.5;;;-146.1;100.0
45864;BME280;31579;52.354;16.974;2023-05-16T00:39:48;509.5;;;-146.1;100.0
45864;BME280;31579;52.354;16.974;2023-05-16T00:40:52;509.5;;;-146.1;100.0
45864;BME280;31579;52.354;16.974;2023-05-16T00:41:56;509.5;;;-146.1;100.0
45864;BME280;31579;52.354;16.974;2023-05-16T00:43:00;509.5;;;-146.1;100.0
45864;BME280;31579;52.354;16.974;2023-05-16T00:44:05;509.5;;;-146.1;100.0
45864;BME280;31579;52.354;16.974;2023-05-16T00:45:09;509.5;;;-146.1;100.0
45864;BME280;31579;52.354;16.974;2023-05-16T00:46:13;509.5;;;-146.1;100.0
45864;BME280;31579;52.354;16.974;2023-05-16T00:47:17;509.5;;;-146.1;100.0
45864;BME280;31579;52.354;16.974;2023-05-16T00:48:19;509.6;;;-146.1;100.0
45864;BME280;31579;52.354;16.974;2023-05-16T00:49:22;509.6;;;-146.1;100.0
45864;BME280;31579;52.354;16.974;2023-05-16T00:50:26;509.6;;;-146.1;100.0
45864;BME280;31579;52.354;16.974;2023-05-16T00:51:30;509.6;;;-146.1;100.0
45864;BME280;31579;52.354;16.974;2023-05-16T00:52:34;509.6;;;-146.1;100.0
45864;BME280;31579;52.354;16.974;2023-05-16T00:53:38;509.5;;;-146.1;100.0
45864;BME280;31579;52.354;16.974;2023-05-16T00:54:42;509.5;;;-146.1;100.0
45864;BME280;31579;52.354;16.974;2023-05-16T00:55:46;509.5;;;-146.1;100.0
45864;BME280;31579;52.354;16.974;2023-05-16T00:56:50;509.5;;;-146.1;100.0
45864;BME280;31579;52.354;16.974;2023-05-16T00:57:54;509.5;;;-146.1;100.0
45864;BME280;31579;52.354;16.974;2023-05-16T00:58:58;509.5;;;-146.1;100.0
45864;BME280;31579;52.354;16.974;2023-05-16T01:00:00;509.6;;;-146.1;100.0
45864;BME280;31579;52.354;16.974;2023-05-16T01:01:03;509.6;;;-146.1;100.0
45864;BME280;31579;52.354;16.974;2023-05-16T01:02:21;509.5;;;-146.1;100.0
45864;BME280;31579;52.354;16.974;2023-05-16T01:03:25;509.5;;;-146.1;100.0
45864;BME280;31579;52.354;16.974;2023-05-16T01:04:29;509.5;;;-146.1;100.0
45864;BME280;31579;52.354;16.974;2023-05-16T01:05:46;509.3;;;-146.1;100.0
45864;BME280;31579;52.354;16.974;2023-05-16T01:06:50;509.4;;;-146.1;100.0
45864;BME280;31579;52.354;16.974;2023-05-16T01:07:55;509.5;;;-146.1;100.0
45864;BME280;31579;52.354;16.974;2023-05-16T01:08:58;509.5;;;-146.1;100.0
45864;BME280;31579;52.354;16.974;2023-05-16T01:10:01;509.6;;;-146.1;100.0
45864;BME280;31579;52.354;16.974;2023-05-16T01:13:17;509.5;;;-146.1;100.0
45864;BME280;31579;52.354;16.974;2023-05-16T01:14:24;509.5;;;-146.1;100.0
45864;BME280;31579;52.354;16.974;2023-05-16T01:16:30;509.5;;;-146.1;100.0
45864;BME280;31579;52.354;16.974;2023-05-16T01:21:52;509.4;;;-146.1;100.0
45864;BME280;31579;52.354;16.974;2023-05-16T01:25:05;509.5;;;-146.1;100.0
45864;BME280;31579;52.354;16.974;2023-05-16T01:27:08;509.5;;;-146.1;100.0
45864;BME280;31579;52.354;16.974;2023-05-16T01:28:12;509.5;;;-146.1;100.0
45864;BME280;31579;52.354;16.974;2023-05-16T01:29:16;509.5;;;-146.1;100.0
45864;BME280;31579;52.354;16.974;2023-05-16T01:30:20;509.5;;;-146.1;100.0
45864;BME280;31579;52.354;16.974;2023-05-16T01:31:24;509.5;;;-146.1;100.0
45864;BME280;31579;52.354;16.974;2023-05-16T01:32:28;509.5;;;-146.1;100.0
45864;BME280;31579;52.354;16.974;2023-05-16T01:33:32;509.5;;;-146.1;100.0
45864;BME280;31579;52.354;16.974;2023-05-16T01:34:36;509.5;;;-146.1;100.0
45864;BME280;31579;52.354;16.974;2023-05-16T01:35:45;509.5;;;-146.1;100.0
45864;BME280;31579;52.354;16.974;2023-05-16T01:37:54;509.6;;;-146.1;100.0
45864;BME280;31579;52.354;16.974;2023-05-16T01:38:55;509.6;;;-146.1;100.0
45864;BME280;31579;52.354;16.974;2023-05-16T01:39:56;509.5;;;-146.1;100.0
45864;BME280;31579;52.354;16.974;2023-05-16T01:41:01;509.6;;;-146.1;100.0
45864;BME280;31579;52.354;16.974;2023-05-16T01:42:03;509.6;;;-146.1;100.0
45864;BME280;31579;52.354;16.974;2023-05-16T01:43:07;509.6;;;-146.1;100.0
45864;BME280;31579;52.354;16.974;2023-05-16T01:45:17;509.6;;;-146.1;100.0
45864;BME280;31579;52.354;16.974;2023-05-16T01:46:26;509.6;;;-146.1;100.0
45864;BME280;31579;52.354;16.974;2023-05-16T01:47:22;509.5;;;-146.1;100.0
45864;BME280;31579;52.354;16.974;2023-05-16T01:48:26;509.5;;;-146.1;100.0
45864;BME280;31579;52.354;16.974;2023-05-16T01:50:35;509.5;;;-146.1;100.0
45864;BME280;31579;52.354;16.974;2023-05-16T01:51:38;509.5;;;-146.1;100.0
45864;BME280;31579;52.354;16.974;2023-05-16T01:53:46;509.5;;;-146.1;100.0
45864;BME280;31579;52.354;16.974;2023-05-16T01:54:50;509.5;;;-146.1;100.0
45864;BME280;31579;52.354;16.974;2023-05-16T01:55:55;509.5;;;-146.1;100.0
45864;BME280;31579;52.354;16.974;2023-05-16T01:56:58;509.5;;;-146.1;100.0
45864;BME280;31579;52.354;16.974;2023-05-16T01:58:02;509.5;;;-146.1;100.0
45864;BME280;31579;52.354;16.974;2023-05-16T01:59:06;509.5;;;-146.1;100.0
45864;BME280;31579;52.354;16.974;2023-05-16T02:00:10;509.5;;;-146.1;100.0
45864;BME280;31579;52.354;16.974;2023-05-16T02:01:14;509.5;;;-146.1;100.0
45864;BME280;31579;52.354;16.974;2023-05-16T02:02:18;509.5;;;-146.1;100.0
45864;BME280;31579;52.354;16.974;2023-05-16T02:03:22;509.5;;;-146.1;100.0
45864;BME280;31579;52.354;16.974;2023-05-16T02:04:26;509.5;;;-146.1;100.0
45864;BME280;31579;52.354;16.974;2023-05-16T02:05:30;509.5;;;-146.1;100.0
45864;BME280;31579;52.354;16.974;2023-05-16T02:06:34;509.5;;;-146.1;100.0
45864;BME280;31579;52.354;16.974;2023-05-16T02:07:38;509.5;;;-146.1;100.0
45864;BME280;31579;52.354;16.974;2023-05-16T02:08:42;509.5;;;-146.1;100.0
45864;BME280;31579;52.354;16.974;2023-05-16T02:09:46;509.5;;;-146.1;100.0
45864;BME280;31579;52.354;16.974;2023-05-16T02:10:50;509.5;;;-146.1;100.0
45864;BME280;31579;52.354;16.974;2023-05-16T02:11:54;509.5;;;-146.1;100.0
45864;BME280;31579;52.354;16.974;2023-05-16T02:12:58;509.5;;;-146.1;100.0
45864;BME280;31579;52.354;16.974;2023-05-16T02:14:02;509.5;;;-146.1;100.0
45864;BME280;31579;52.354;16.974;2023-05-16T02:15:06;509.5;;;-146.1;100.0
45864;BME280;31579;52.354;16.974;2023-05-16T02:16:10;509.5;;;-146.1;100.0
45864;BME280;31579;52.354;16.974;2023-05-16T02:17:14;509.5;;;-146.1;100.0
45864;BME280;31579;52.354;16.974;2023-05-16T02:18:18;509.5;;;-146.1;100.0
45864;BME280;31579;52.354;16.974;2023-05-16T02:19:23;509.5;;;-146.1;100.0
45864;BME280;31579;52.354;16.974;2023-05-16T02:20:27;509.5;;;-146.1;100.0
45864;BME280;31579;52.354;16.974;2023-05-16T02:21:31;509.5;;;-146.1;100.0
45864;BME280;31579;52.354;16.974;2023-05-16T02:22:35;509.5;;;-146.1;100.0
45864;BME280;31579;52.354;16.974;2023-05-16T02:23:39;509.5;;;-146.1;100.0
45864;BME280;31579;52.354;16.974;2023-05-16T02:24:43;509.5;;;-146.1;100.0
45864;BME280;31579;52.354;16.974;2023-05-16T02:25:47;509.5;;;-146.1;100.0
45864;BME280;31579;52.354;16.974;2023-05-16T02:26:51;509.5;;;-146.1;100.0
45864;BME280;31579;52.354;16.974;2023-05-16T02:27:55;509.5;;;-146.1;100.0
45864;BME280;31579;52.354;16.974;2023-05-16T02:28:59;509.5;;;-146.1;100.0
45864;BME280;31579;52.354;16.974;2023-05-16T02:30:01;509.6;;;-146.1;100.0
45864;BME280;31579;52.354;16.974;2023-05-16T02:31:04;509.6;;;-146.1;100.0
45864;BME280;31579;52.354;16.974;2023-05-16T02:32:08;509.6;;;-146.1;100.0
45864;BME280;31579;52.354;16.974;2023-05-16T02:33:12;509.5;;;-146.1;100.0
45864;BME280;31579;52.354;16.974;2023-05-16T02:34:16;509.5;;;-146.1;100.0
45864;BME280;31579;52.354;16.974;2023-05-16T02:35:20;509.5;;;-146.1;100.0
45864;BME280;31579;52.354;16.974;2023-05-16T02:36:24;509.5;;;-146.1;100.0
45864;BME280;31579;52.354;16.974;2023-05-16T02:37:28;509.5;;;-146.1;100.0
45864;BME280;31579;52.354;16.974;2023-05-16T02:38:32;509.5;;;-146.1;100.0
45864;BME280;31579;52.354;16.974;2023-05-16T02:39:36;509.5;;;-146.1;100.0
45864;BME280;31579;52.354;16.974;2023-05-16T02:40:40;509.5;;;-146.1;100.0
45864;BME280;31579;52.354;16.974;2023-05-16T02:41:44;509.5;;;-146.1;100.0
45864;BME280;31579;52.354;16.974;2023-05-16T02:42:49;509.5;;;-146.1;100.0
45864;BME280;31579;52.354;16.974;2023-05-16T02:43:53;509.5;;;-146.1;100.0
45864;BME280;31579;52.354;16.974;2023-05-16T02:44:57;509.5;;;-146.1;100.0
45864;BME280;31579;52.354;16.974;2023-05-16T02:47:11;509.5;;;-146.1;100.0
45864;BME280;31579;52.354;16.974;2023-05-16T02:48:16;509.5;;;-146.1;100.0
45864;BME280;31579;52.354;16.974;2023-05-16T02:49:20;509.5;;;-146.1;100.0
45864;BME280;31579;52.354;16.974;2023-05-16T02:50:24;509.5;;;-146.1;100.0
45864;BME280;31579;52.354;16.974;2023-05-16T02:51:28;509.5;;;-146.1;100.0
45864;BME280;31579;52.354;16.974;2023-05-16T02:52:32;509.5;;;-146.1;100.0
45864;BME280;31579;52.354;16.974;2023-05-16T02:53:36;509.5;;;-146.1;100.0
45864;BME280;31579;52.354;16.974;2023-05-16T02:54:41;509.5;;;-146.1;100.0
45864;BME280;31579;52.354;16.974;2023-05-16T02:55:45;509.5;;;-146.1;100.0
45864;BME280;31579;52.354;16.974;2023-05-16T02:56:49;509.5;;;-146.1;100.0
45864;BME280;31579;52.354;16.974;2023-05-16T02:57:54;509.5;;;-146.1;100.0
45864;BME280;31579;52.354;16.974;2023-05-16T02:58:58;509.5;;;-146.1;100.0
45864;BME280;31579;52.354;16.974;2023-05-16T03:00:02;509.5;;;-146.1;100.0
45864;BME280;31579;52.354;16.974;2023-05-16T03:01:06;509.5;;;-146.1;100.0
45864;BME280;31579;52.354;16.974;2023-05-16T03:02:10;509.5;;;-146.1;100.0
45864;BME280;31579;52.354;16.974;2023-05-16T03:03:14;509.5;;;-146.1;100.0
45864;BME280;31579;52.354;16.974;2023-05-16T03:04:18;509.5;;;-146.1;100.0
45864;BME280;31579;52.354;16.974;2023-05-16T03:05:22;509.5;;;-146.1;100.0
45864;BME280;31579;52.354;16.974;2023-05-16T03:06:26;509.5;;;-146.1;100.0
45864;BME280;31579;52.354;16.974;2023-05-16T03:07:30;509.5;;;-146.1;100.0
45864;BME280;31579;52.354;16.974;2023-05-16T03:08:34;509.5;;;-146.1;100.0
45864;BME280;31579;52.354;16.974;2023-05-16T03:09:38;509.5;;;-146.1;100.0
45864;BME280;31579;52.354;16.974;2023-05-16T03:10:42;509.5;;;-146.1;100.0
45864;BME280;31579;52.354;16.974;2023-05-16T03:11:46;509.5;;;-146.1;100.0
45864;BME280;31579;52.354;16.974;2023-05-16T03:12:50;509.5;;;-146.1;100.0
45864;BME280;31579;52.354;16.974;2023-05-16T03:13:54;509.5;;;-146.1;100.0
45864;BME280;31579;52.354;16.974;2023-05-16T03:14:58;509.5;;;-146.1;100.0
45864;BME280;31579;52.354;16.974;2023-05-16T03:16:02;509.5;;;-146.1;100.0
45864;BME280;31579;52.354;16.974;2023-05-16T03:17:06;509.5;;;-146.1;100.0
45864;BME280;31579;52.354;16.974;2023-05-16T03:18:11;509.5;;;-146.1;100.0
45864;BME280;31579;52.354;16.974;2023-05-16T03:19:15;509.5;;;-146.1;100.0
45864;BME280;31579;52.354;16.974;2023-05-16T03:20:19;509.5;;;-146.1;100.0
45864;BME280;31579;52.354;16.974;2023-05-16T03:21:23;509.5;;;-146.1;100.0
45864;BME280;31579;52.354;16.974;2023-05-16T03:22:27;509.5;;;-146.1;100.0
45864;BME280;31579;52.354;16.974;2023-05-16T03:23:31;509.5;;;-146.1;100.0
45864;BME280;31579;52.354;16.974;2023-05-16T03:24:35;509.5;;;-146.1;100.0
45864;BME280;31579;52.354;16.974;2023-05-16T03:25:39;509.5;;;-146.1;100.0
45864;BME280;31579;52.354;16.974;2023-05-16T03:26:43;509.5;;;-146.1;100.0
45864;BME280;31579;52.354;16.974;2023-05-16T03:27:47;509.5;;;-146.1;100.0
45864;BME280;31579;52.354;16.974;2023-05-16T03:28:52;509.5;;;-146.1;100.0
45864;BME280;31579;52.354;16.974;2023-05-16T03:29:56;509.5;;;-146.1;100.0
45864;BME280;31579;52.354;16.974;2023-05-16T03:31:00;509.5;;;-146.1;100.0
45864;BME280;31579;52.354;16.974;2023-05-16T03:32:03;509.6;;;-146.1;100.0
45864;BME280;31579;52.354;16.974;2023-05-16T03:33:08;509.6;;;-146.1;100.0
45864;BME280;31579;52.354;16.974;2023-05-16T03:34:12;509.5;;;-146.1;100.0
45864;BME280;31579;52.354;16.974;2023-05-16T03:35:16;509.5;;;-146.1;100.0
45864;BME280;31579;52.354;16.974;2023-05-16T03:36:20;509.5;;;-146.1;100.0
45864;BME280;31579;52.354;16.974;2023-05-16T03:37:24;509.5;;;-146.1;100.0
45864;BME280;31579;52.354;16.974;2023-05-16T03:38:28;509.5;;;-146.1;100.0
45864;BME280;31579;52.354;16.974;2023-05-16T03:39:32;509.5;;;-146.1;100.0
45864;BME280;31579;52.354;16.974;2023-05-16T03:40:36;509.5;;;-146.1;100.0
45864;BME280;31579;52.354;16.974;2023-05-16T03:41:40;509.5;;;-146.1;100.0
45864;BME280;31579;52.354;16.974;2023-05-16T03:42:44;509.5;;;-146.1;100.0
45864;BME280;31579;52.354;16.974;2023-05-16T03:43:48;509.5;;;-146.1;100.0
45864;BME280;31579;52.354;16.974;2023-05-16T03:44:52;509.5;;;-146.1;100.0
45864;BME280;31579;52.354;16.974;2023-05-16T03:45:56;509.5;;;-146.1;100.0
45864;BME280;31579;52.354;16.974;2023-05-16T03:47:00;509.5;;;-146.1;100.0
45864;BME280;31579;52.354;16.974;2023-05-16T03:48:03;509.6;;;-146.1;100.0
45864;BME280;31579;52.354;16.974;2023-05-16T03:49:08;509.5;;;-146.1;100.0
45864;BME280;31579;52.354;16.974;2023-05-16T03:50:13;509.5;;;-146.1;100.0
45864;BME280;31579;52.354;16.974;2023-05-16T03:51:17;509.5;;;-146.1;100.0
45864;BME280;31579;52.354;16.974;2023-05-16T03:52:21;509.5;;;-146.1;100.0
45864;BME280;31579;52.354;16.974;2023-05-16T03:53:26;509.5;;;-146.1;100.0
45864;BME280;31579;52.354;16.974;2023-05-16T03:54:30;509.5;;;-146.1;100.0
45864;BME280;31579;52.354;16.974;2023-05-16T03:55:34;509.5;;;-146.1;100.0
45864;BME280;31579;52.354;16.974;2023-05-16T03:56:39;509.5;;;-146.1;100.0
45864;BME280;31579;52.354;16.974;2023-05-16T03:57:43;509.5;;;-146.1;100.0
45864;BME280;31579;52.354;16.974;2023-05-16T03:58:47;509.5;;;-146.1;100.0
45864;BME280;31579;52.354;16.974;2023-05-16T03:59:51;509.5;;;-146.1;100.0
45864;BME280;31579;52.354;16.974;2023-05-16T04:00:55;509.5;;;-146.1;100.0
45864;BME280;31579;52.354;16.974;2023-05-16T04:01:59;509.5;;;-146.1;100.0
45864;BME280;31579;52.354;16.974;2023-05-16T04:03:11;509.0;;;-146.1;100.0
45864;BME280;31579;52.354;16.974;2023-05-16T04:04:15;509.4;;;-146.1;100.0
45864;BME280;31579;52.354;16.974;2023-05-16T04:05:19;509.4;;;-146.1;100.0
45864;BME280;31579;52.354;16.974;2023-05-16T04:06:23;509.5;;;-146.1;100.0
45864;BME280;31579;52.354;16.974;2023-05-16T04:07:27;509.5;;;-146.1;100.0
45864;BME280;31579;52.354;16.974;2023-05-16T04:08:31;509.5;;;-146.1;100.0
45864;BME280;31579;52.354;16.974;2023-05-16T04:09:35;509.5;;;-146.1;100.0
45864;BME280;31579;52.354;16.974;2023-05-16T04:10:39;509.5;;;-146.1;100.0
45864;BME280;31579;52.354;16.974;2023-05-16T04:11:43;509.5;;;-146.1;100.0
45864;BME280;31579;52.354;16.974;2023-05-16T04:12:47;509.5;;;-146.1;100.0
45864;BME280;31579;52.354;16.974;2023-05-16T04:13:51;509.5;;;-146.1;100.0
45864;BME280;31579;52.354;16.974;2023-05-16T04:14:55;509.5;;;-146.1;100.0
45864;BME280;31579;52.354;16.974;2023-05-16T04:15:59;509.5;;;-146.1;100.0
45864;BME280;31579;52.354;16.974;2023-05-16T04:17:03;509.5;;;-146.1;100.0
45864;BME280;31579;52.354;16.974;2023-05-16T04:18:11;509.5;;;-146.1;100.0
45864;BME280;31579;52.354;16.974;2023-05-16T04:19:15;509.5;;;-146.1;100.0
45864;BME280;31579;52.354;16.974;2023-05-16T04:20:19;509.5;;;-146.1;100.0
45864;BME280;31579;52.354;16.974;2023-05-16T04:21:24;509.5;;;-146.1;100.0
45864;BME280;31579;52.354;16.974;2023-05-16T04:22:28;509.5;;;-146.1;100.0
45864;BME280;31579;52.354;16.974;2023-05-16T04:23:32;509.5;;;-146.1;100.0
45864;BME280;31579;52.354;16.974;2023-05-16T04:24:36;509.5;;;-146.1;100.0
45864;BME280;31579;52.354;16.974;2023-05-16T04:25:40;509.5;;;-146.1;100.0
45864;BME280;31579;52.354;16.974;2023-05-16T04:26:44;509.5;;;-146.1;100.0
45864;BME280;31579;52.354;16.974;2023-05-16T04:27:49;509.5;;;-146.1;100.0
45864;BME280;31579;52.354;16.974;2023-05-16T04:28:53;509.5;;;-146.1;100.0
45864;BME280;31579;52.354;16.974;2023-05-16T04:29:57;509.5;;;-146.1;100.0
45864;BME280;31579;52.354;16.974;2023-05-16T04:31:01;509.5;;;-146.1;100.0
45864;BME280;31579;52.354;16.974;2023-05-16T04:32:06;509.5;;;-146.1;100.0
45864;BME280;31579;52.354;16.974;2023-05-16T04:33:09;509.5;;;-146.1;100.0
45864;BME280;31579;52.354;16.974;2023-05-16T04:34:13;509.5;;;-146.1;100.0
45864;BME280;31579;52.354;16.974;2023-05-16T04:35:17;509.5;;;-146.1;100.0
45864;BME280;31579;52.354;16.974;2023-05-16T04:36:22;509.5;;;-146.1;100.0
45864;BME280;31579;52.354;16.974;2023-05-16T04:37:25;509.5;;;-146.1;100.0
45864;BME280;31579;52.354;16.974;2023-05-16T04:38:29;509.5;;;-146.1;100.0
45864;BME280;31579;52.354;16.974;2023-05-16T04:39:34;509.5;;;-146.1;100.0
45864;BME280;31579;52.354;16.974;2023-05-16T04:40:37;509.5;;;-146.1;100.0
45864;BME280;31579;52.354;16.974;2023-05-16T04:41:41;509.5;;;-146.1;100.0
45864;BME280;31579;52.354;16.974;2023-05-16T04:42:45;509.5;;;-146.1;100.0
45864;BME280;31579;52.354;16.974;2023-05-16T04:43:49;509.5;;;-146.1;100.0
45864;BME280;31579;52.354;16.974;2023-05-16T04:44:53;509.4;;;-146.1;100.0
45864;BME280;31579;52.354;16.974;2023-05-16T04:45:57;509.4;;;-146.1;100.0
45864;BME280;31579;52.354;16.974;2023-05-16T04:47:01;509.3;;;-146.1;100.0
45864;BME280;31579;52.354;16.974;2023-05-16T04:48:05;509.2;;;-146.1;100.0
45864;BME280;31579;52.354;16.974;2023-05-16T04:49:09;508.7;;;-146.1;100.0
45864;BME280;31579;52.354;16.974;2023-05-16T04:50:13;508.7;;;-146.1;100.0
45864;BME280;31579;52.354;16.974;2023-05-16T04:51:17;508.7;;;-146.1;100.0
45864;BME280;31579;52.354;16.974;2023-05-16T04:52:21;508.9;;;-146.1;100.0
45864;BME280;31579;52.354;16.974;2023-05-16T04:53:22;509.0;;;-146.1;100.0
45864;BME280;31579;52.354;16.974;2023-05-16T04:54:26;508.4;;;-146.1;100.0
45864;BME280;31579;52.354;16.974;2023-05-16T04:55:30;507.1;;;-146.1;100.0
45864;BME280;31579;52.354;16.974;2023-05-16T04:56:34;506.8;;;-146.1;100.0
45864;BME280;31579;52.354;16.974;2023-05-16T04:57:39;505.4;;;-146.1;100.0
45864;BME280;31579;52.354;16.974;2023-05-16T04:58:43;504.4;;;-146.1;100.0
45864;BME280;31579;52.354;16.974;2023-05-16T04:59:47;503.1;;;-146.1;100.0
45864;BME280;31579;52.354;16.974;2023-05-16T05:00:51;502.3;;;-146.1;100.0
45864;BME280;31579;52.354;16.974;2023-05-16T05:01:55;501.9;;;-146.1;100.0
45864;BME280;31579;52.354;16.974;2023-05-16T05:02:59;500.5;;;-146.1;100.0
45864;BME280;31579;52.354;16.974;2023-05-16T05:04:01;500.2;;;-146.1;100.0
45864;BME280;31579;52.354;16.974;2023-05-16T05:05:06;496.5;;;-146.1;100.0
45864;BME280;31579;52.354;16.974;2023-05-16T05:06:10;493.6;;;-146.1;100.0
45864;BME280;31579;52.354;16.974;2023-05-16T05:07:14;487.9;;;-146.1;100.0
45864;BME280;31579;52.354;16.974;2023-05-16T05:08:17;486.8;;;-146.1;100.0
45864;BME280;31579;52.354;16.974;2023-05-16T05:09:21;481.8;;;-146.1;100.0
45864;BME280;31579;52.354;16.974;2023-05-16T05:10:38;478.4;;;-146.1;100.0
45864;BME280;31579;52.354;16.974;2023-05-16T05:11:42;476.9;;;-146.1;100.0
45864;BME280;31579;52.354;16.974;2023-05-16T05:12:46;472.6;;;-146.1;100.0
45864;BME280;31579;52.354;16.974;2023-05-16T05:13:51;470.3;;;-146.1;100.0
45864;BME280;31579;52.354;16.974;2023-05-16T05:14:55;469.8;;;-146.1;100.0
45864;BME280;31579;52.354;16.974;2023-05-16T05:15:59;469.5;;;-146.1;100.0
45864;BME280;31579;52.354;16.974;2023-05-16T05:17:03;469.4;;;-146.1;100.0
45864;BME280;31579;52.354;16.974;2023-05-16T05:18:07;471.2;;;-146.1;100.0
45864;BME280;31579;52.354;16.974;2023-05-16T05:19:11;468.7;;;-146.1;100.0
45864;BME280;31579;52.354;16.974;2023-05-16T05:20:15;468.0;;;-146.1;100.0
45864;BME280;31579;52.354;16.974;2023-05-16T05:21:19;467.0;;;-146.1;100.0
45864;BME280;31579;52.354;16.974;2023-05-16T05:22:23;453.7;;;-146.1;100.0
45864;BME280;31579;52.354;16.974;2023-05-16T05:23:27;442.5;;;-146.1;100.0
45864;BME280;31579;52.354;16.974;2023-05-16T05:24:31;436.5;;;-146.1;100.0
45864;BME280;31579;52.354;16.974;2023-05-16T05:25:35;434.6;;;-146.1;100.0
45864;BME280;31579;52.354;16.974;2023-05-16T05:26:39;432.1;;;-146.1;100.0
45864;BME280;31579;52.354;16.974;2023-05-16T05:27:43;427.1;;;-146.1;100.0
45864;BME280;31579;52.354;16.974;2023-05-16T05:28:47;421.6;;;-146.1;100.0
45864;BME280;31579;52.354;16.974;2023-05-16T05:29:51;420.8;;;-146.1;100.0
45864;BME280;31579;52.354;16.974;2023-05-16T05:30:55;414.3;;;-146.1;100.0
45864;BME280;31579;52.354;16.974;2023-05-16T05:31:59;413.6;;;-146.1;100.0
45864;BME280;31579;52.354;16.974;2023-05-16T05:33:03;406.1;;;-146.1;100.0
45864;BME280;31579;52.354;16.974;2023-05-16T05:34:07;398.2;;;-146.1;100.0
45864;BME280;31579;52.354;16.974;2023-05-16T05:35:11;395.2;;;-146.1;100.0
45864;BME280;31579;52.354;16.974;2023-05-16T05:36:15;394.6;;;-146.1;100.0
45864;BME280;31579;52.354;16.974;2023-05-16T05:37:19;396.7;;;-146.1;100.0
45864;BME280;31579;52.354;16.974;2023-05-16T05:38:23;392.9;;;-146.1;100.0
45864;BME280;31579;52.354;16.974;2023-05-16T05:39:27;384.6;;;-146.1;100.0
45864;BME280;31579;52.354;16.974;2023-05-16T05:40:32;382.0;;;-146.1;100.0
45864;BME280;31579;52.354;16.974;2023-05-16T05:41:36;373.1;;;-146.1;100.0
45864;BME280;31579;52.354;16.974;2023-05-16T05:42:40;364.4;;;-146.1;100.0
45864;BME280;31579;52.354;16.974;2023-05-16T05:43:45;378.5;;;-146.1;100.0
45864;BME280;31579;52.354;16.974;2023-05-16T05:44:49;376.2;;;-146.1;100.0
45864;BME280;31579;52.354;16.974;2023-05-16T05:45:54;370.2;;;-146.1;100.0
45864;BME280;31579;52.354;16.974;2023-05-16T05:46:57;366.8;;;-146.1;100.0
45864;BME280;31579;52.354;16.974;2023-05-16T05:48:01;365.2;;;-146.1;100.0
45864;BME280;31579;52.354;16.974;2023-05-16T05:49:06;363.2;;;-146.1;100.0
45864;BME280;31579;52.354;16.974;2023-05-16T05:50:10;366.3;;;-146.1;100.0
45864;BME280;31579;52.354;16.974;2023-05-16T05:51:14;369.3;;;-146.1;100.0
45864;BME280;31579;52.354;16.974;2023-05-16T05:52:18;377.0;;;-146.1;100.0
45864;BME280;31579;52.354;16.974;2023-05-16T05:53:23;368.9;;;-146.1;100.0
45864;BME280;31579;52.354;16.974;2023-05-16T05:54:27;361.9;;;-146.1;100.0
45864;BME280;31579;52.354;16.974;2023-05-16T05:55:31;365.0;;;-146.1;100.0
45864;BME280;31579;52.354;16.974;2023-05-16T05:56:33;370.6;;;-146.1;100.0
45864;BME280;31579;52.354;16.974;2023-05-16T05:57:35;361.6;;;-146.1;100.0
45864;BME280;31579;52.354;16.974;2023-05-16T05:58:40;358.0;;;-146.1;100.0
45864;BME280;31579;52.354;16.974;2023-05-16T05:59:44;355.0;;;-146.1;100.0